Time;durP1;ratioP1;P1;durP2;ratioP2;P2;SDS_P1;SDS_P2;PMS_P1;PMS_P2;Temp;Humidity;BMP_temperature;BMP_pressure;BME280_temperature;BME280_humidity;BME280_pressure;Samples;Min_cycle;Max_cycle;Signal;HPM_P1;HPM_P2
2022/08/12 00:44:25;;;;;;;12.55;9.85;;;;;;;20.66;100.00;100638.42;1715057;82;21056;-42
2022/08/12 00:47:00;;;;;;;12.37;9.75;;;;;;;20.68;100.00;100625.16;1710685;82;20953;-42
2022/08/12 00:49:29;;;;;;;10.10;8.58;;;;;;;20.68;100.00;100618.59;1686013;84;22059;-42
2022/08/12 00:52:11;;;;;;;16.62;10.45;;;;;;;20.70;100.00;100624.60;1686180;85;20913;-42
2022/08/12 00:54:56;;;;;;;17.20;10.20;;;;;;;20.71;100.00;100617.09;1686046;85;20944;-42
2022/08/12 00:57:30;;;;;;;16.25;10.13;;;;;;;20.73;100.00;100638.05;1694718;83;21023;-42
2022/08/12 01:00:00;;;;;;;15.40;10.18;;;;;;;20.73;100.00;100632.34;1714636;82;20988;-43
2022/08/12 01:02:32;;;;;;;12.90;9.80;;;;;;;20.75;100.00;100648.02;1714955;82;21001;-42
2022/08/12 01:13:26;;;;;;;19.07;9.03;;;;;;;20.81;100.00;100652.94;1714731;82;20948;-41
2022/08/12 01:15:56;;;;;;;15.93;9.00;;;;;;;20.80;100.00;100645.98;1714365;82;21072;-42
2022/08/12 01:18:28;;;;;;;12.37;8.88;;;;;;;20.76;100.00;100643.13;1719772;82;20984;-41
2022/08/12 01:21:27;;;;;;;14.35;9.20;;;;;;;20.75;100.00;100669.05;1726327;82;20956;-41
2022/08/12 01:24:21;;;;;;;20.97;9.73;;;;;;;20.71;100.00;100667.55;1718936;83;21522;-41
2022/08/12 01:26:48;;;;;;;14.90;9.23;;;;;;;20.64;100.00;100652.58;1698444;83;20944;-42
2022/08/12 01:29:17;;;;;;;9.90;8.55;;;;;;;20.58;100.00;100638.00;1700028;83;21235;-41
2022/08/12 01:31:46;;;;;;;17.27;8.98;;;;;;;20.53;100.00;100638.28;1711688;83;21497;-42
2022/08/12 01:34:16;;;;;;;10.63;9.58;;;;;;;20.52;100.00;100625.21;1711589;83;21038;-41
2022/08/12 01:36:46;;;;;;;15.20;9.40;;;;;;;20.50;100.00;100617.88;1719185;83;21050;-41
2022/08/12 01:39:16;;;;;;;13.05;8.75;;;;;;;20.51;100.00;100623.06;1723548;82;20896;-42
2022/08/12 01:41:53;;;;;;;20.60;8.70;;;;;;;20.50;100.00;100622.69;1721895;83;22050;-41
2022/08/12 01:44:21;;;;;;;15.03;9.33;;;;;;;20.51;100.00;100624.38;1722522;81;20916;-41
2022/08/12 01:46:59;;;;;;;17.65;9.50;;;;;;;20.51;100.00;100609.92;1718541;83;21173;-41
2022/08/12 01:49:59;;;;;;;16.25;8.33;;;;;;;20.51;100.00;100605.98;1663420;83;21006;-41
2022/08/12 01:52:57;;;;;;;15.95;8.83;;;;;;;20.55;100.00;100622.41;1693601;83;20995;-41
2022/08/12 01:55:31;;;;;;;11.93;8.43;;;;;;;20.56;100.00;100631.98;1721958;83;21177;-41
2022/08/12 01:58:12;;;;;;;14.18;8.68;;;;;;;20.58;100.00;100628.79;1721566;83;20991;-41
2022/08/12 02:00:50;;;;;;;10.35;9.05;;;;;;;20.60;100.00;100626.09;1721523;83;20960;-41
2022/08/12 02:13:24;;;;;;;12.10;8.98;;;;;;;20.53;100.00;100627.77;1721376;83;21068;-42
2022/08/12 02:16:11;;;;;;;9.33;8.00;;;;;;;20.51;100.00;100624.38;1720077;83;21032;-42
2022/08/12 02:18:50;;;;;;;13.05;8.03;;;;;;;20.51;100.00;100624.38;1714482;83;21025;-42
2022/08/12 02:21:44;;;;;;;14.58;7.33;;;;;;;20.50;100.00;100616.56;1704025;83;20996;-42
2022/08/12 02:24:15;;;;;;;13.25;8.28;;;;;;;20.50;100.00;100620.06;1709994;83;21167;-42
2022/08/12 02:26:44;;;;;;;8.13;7.20;;;;;;;20.49;100.00;100612.25;1713556;82;20913;-42
2022/08/12 02:29:12;;;;;;;11.78;7.97;;;;;;;20.48;100.00;100621.94;1713424;82;22357;-42
2022/08/12 02:31:42;;;;;;;14.70;8.10;;;;;;;20.48;100.00;100615.81;1713669;82;21031;-42
2022/08/12 02:34:11;;;;;;;17.23;7.42;;;;;;;20.48;100.00;100615.36;1713749;83;21475;-42
2022/08/12 02:36:38;;;;;;;13.25;8.20;;;;;;;20.49;100.00;100626.25;1712405;82;21257;-42
2022/08/12 02:39:08;;;;;;;17.37;7.62;;;;;;;20.51;100.00;100632.27;1713350;82;21420;-42
2022/08/12 02:41:36;;;;;;;18.52;7.17;;;;;;;20.53;100.00;100637.42;1713778;82;21310;-42
2022/08/12 02:44:08;;;;;;;8.75;7.65;;;;;;;20.55;100.00;100638.17;1713869;82;20913;-42
2022/08/12 02:46:35;;;;;;;8.73;7.17;;;;;;;20.57;100.00;100634.16;1713712;82;21012;-42
2022/08/12 02:49:32;;;;;;;14.38;7.45;;;;;;;20.58;100.00;100636.68;1703206;83;21051;-42
2022/08/12 02:51:59;;;;;;;11.53;6.97;;;;;;;20.60;100.00;100632.66;1673594;83;21502;-42
2022/08/12 02:54:26;;;;;;;17.20;7.10;;;;;;;20.61;100.00;100633.91;1708450;83;21008;-42
2022/08/12 02:56:53;;;;;;;8.40;6.80;;;;;;;20.64;100.00;100632.41;1708267;83;20901;-42
2022/08/12 02:59:25;;;;;;;7.83;7.05;;;;;;;20.68;100.00;100634.37;1708226;83;21237;-42
2022/08/12 03:01:55;;;;;;;11.20;6.92;;;;;;;20.72;100.00;100646.43;1710161;83;21219;-42
2022/08/12 03:04:35;;;;;;;13.58;7.33;;;;;;;20.75;100.00;100641.44;1712423;82;21046;-41
2022/08/12 03:07:27;;;;;;;8.90;6.72;;;;;;;20.76;100.00;100644.45;1714651;83;21465;-42
2022/08/12 03:10:08;;;;;;;11.80;6.80;;;;;;;20.78;100.00;100645.20;1713088;82;21104;-42
2022/08/12 03:12:38;;;;;;;14.98;6.78;;;;;;;20.80;100.00;100647.30;1688018;83;20943;-41
2022/08/12 03:15:08;;;;;;;12.98;7.12;;;;;;;20.81;100.00;100646.36;1685907;85;21152;-41
2022/08/12 03:17:45;;;;;;;9.35;6.58;;;;;;;20.81;100.00;100646.36;1698991;84;20961;-42
2022/08/12 03:20:15;;;;;;;;;;;;;;;20.83;100.00;100652.38;1694235;83;20945;-42
2022/08/12 03:22:44;;;;;;;13.83;7.85;;;;;;;20.84;100.00;100647.98;1709299;83;20130;-42
2022/08/12 03:25:23;;;;;;;17.70;7.45;;;;;;;20.82;100.00;100638.84;1686192;84;21047;-42
2022/08/12 03:27:54;;;;;;;8.73;6.67;;;;;;;20.81;100.00;100635.84;1699124;83;22060;-42
2022/08/12 03:30:19;;;;;;;7.17;6.33;;;;;;;20.79;100.00;100629.38;1714613;82;20980;-42
2022/08/12 03:32:48;;;;;;;10.82;7.12;;;;;;;20.79;100.00;100635.05;1708723;82;21015;-42
2022/08/12 03:35:29;;;;;;;11.88;6.40;;;;;;;20.79;100.00;100631.11;1706448;83;20964;-42
2022/08/12 03:37:59;;;;;;;8.28;6.92;;;;;;;20.79;100.00;100642.95;1713693;83;20960;-42
2022/08/12 04:00:23;;;;;;;11.57;8.33;;;;;;;20.00;100.00;100656.61;1713068;82;21431;-43
2022/08/12 04:03:00;;;;;;;19.23;8.10;;;;;;;19.86;100.00;100654.22;1708617;83;21064;-44
2022/08/12 04:05:24;;;;;;;12.18;8.15;;;;;;;19.72;100.00;100647.09;1685929;83;21542;-43
2022/08/12 04:07:52;;;;;;;13.70;8.75;;;;;;;19.63;100.00;100633.99;1685919;84;21258;-44
2022/08/12 04:10:19;;;;;;;8.18;7.17;;;;;;;19.55;100.00;100611.25;1676232;83;21750;-44
2022/08/12 04:13:15;;;;;;;12.00;8.30;;;;;;;19.51;100.00;100589.56;1708965;83;20960;-44
2022/08/12 04:15:44;;;;;;;19.82;8.68;;;;;;;19.47;100.00;100578.02;1704496;83;20905;-44
2022/08/12 04:18:14;;;;;;;16.95;8.18;;;;;;;19.43;100.00;100589.59;1715224;82;21498;-44
2022/08/12 04:20:41;;;;;;;8.40;7.53;;;;;;;19.43;100.00;100614.52;1727378;83;21135;-44
2022/08/12 04:23:15;;;;;;;20.68;9.15;;;;;;;19.42;100.00;100624.19;1718449;82;21015;-44
2022/08/12 04:25:39;;;;;;;8.90;8.00;;;;;;;19.45;100.00;100635.83;1697808;84;20904;-43
2022/08/12 04:28:07;;;;;;;14.40;8.28;;;;;;;19.47;100.00;100640.53;1698311;84;20964;-44
2022/08/12 04:30:35;;;;;;;13.78;8.45;;;;;;;19.51;100.00;100639.44;1700816;83;22385;-43
2022/08/12 04:34:31;;;;;;;18.87;8.78;;;;;;;19.63;100.00;100633.16;1812726;78;26935;-43
2022/08/12 04:36:58;;;;;;;13.25;8.93;;;;;;;19.66;100.00;100619.86;1755407;80;21481;-44
2022/08/12 04:39:25;;;;;;;10.23;8.45;;;;;;;19.74;100.00;100624.22;1757944;81;21102;-43
2022/08/12 04:41:52;;;;;;;12.65;9.03;;;;;;;19.82;100.00;100614.62;1757932;81;20897;-43
2022/08/12 04:44:20;;;;;;;17.70;8.73;;;;;;;19.88;100.00;100623.95;1778027;80;20923;-43
2022/08/12 04:46:46;;;;;;;23.65;8.75;;;;;;;19.92;100.00;100618.94;1778168;80;20959;-43
2022/08/12 04:49:13;;;;;;;12.58;8.60;;;;;;;19.97;100.00;100627.88;1758029;81;21010;-43
2022/08/12 04:51:40;;;;;;;9.65;7.95;;;;;;;20.01;100.00;100624.98;1759812;80;21915;-43
2022/08/12 04:54:07;;;;;;;16.05;9.30;;;;;;;20.06;100.00;100621.62;1756879;80;20885;-43
2022/08/12 04:56:34;;;;;;;10.55;8.50;;;;;;;20.15;100.00;100620.75;1724232;83;22017;-43
2022/08/12 04:59:02;;;;;;;9.48;8.60;;;;;;;20.21;100.00;100625.20;1724429;83;20983;-43
2022/08/12 05:01:31;;;;;;;16.32;8.70;;;;;;;20.31;100.00;100631.23;1714703;83;20999;-43
2022/08/12 05:03:57;;;;;;;12.78;8.43;;;;;;;20.41;100.00;100630.25;1720424;83;21199;-43
2022/08/12 05:06:25;;;;;;;12.13;8.48;;;;;;;20.51;100.00;100631.41;1720897;83;20978;-43
2022/08/12 05:08:55;;;;;;;26.12;9.38;;;;;;;20.63;100.00;100639.91;1724408;83;20881;-43
2022/08/12 05:11:25;;;;;;;17.02;8.75;;;;;;;20.74;100.00;100636.66;1724542;83;21564;-44
2022/08/12 05:13:59;;;;;;;13.45;7.42;;;;;;;20.86;100.00;100641.70;1708908;83;20963;-44
2022/08/12 05:16:26;;;;;;;10.53;7.17;;;;;;;20.94;100.00;100638.14;1723776;82;21014;-44
2022/08/12 05:18:53;;;;;;;13.83;8.53;;;;;;;21.04;100.00;100637.58;1709220;83;20941;-44
2022/08/12 05:21:20;;;;;;;11.28;7.65;;;;;;;21.11;100.00;100637.62;1703069;83;20984;-44
2022/08/12 05:23:47;;;;;;;23.10;8.43;;;;;;;21.20;100.00;100633.55;1719096;82;22304;-44
2022/08/12 05:26:14;;;;;;;15.48;8.53;;;;;;;21.24;100.00;100641.19;1721786;83;21339;-44
2022/08/12 05:28:41;;;;;;;16.37;7.85;;;;;;;21.31;100.00;100639.03;1709480;83;21235;-44
2022/08/12 05:31:08;;;;;;;15.40;8.65;;;;;;;21.41;100.00;100638.45;1684912;84;21521;-44
2022/08/12 05:33:39;;;;;;;15.45;7.15;;;;;;;21.49;100.00;100635.73;1682993;84;20972;-44
2022/08/12 05:36:16;;;;;;;15.45;8.25;;;;;;;21.58;100.00;100640.91;1668402;86;21565;-44
2022/08/12 05:38:57;;;;;;;12.63;7.97;;;;;;;21.72;100.00;100642.70;1667864;84;20936;-44
2022/08/12 05:41:27;;;;;;;8.35;7.50;;;;;;;21.91;100.00;100641.56;1667606;84;21257;-44
2022/08/12 05:43:59;;;;;;;16.87;8.20;;;;;;;22.12;100.00;100645.09;1668274;84;20964;-44
2022/08/12 05:46:28;;;;;;;13.43;7.97;;;;;;;22.30;100.00;100649.15;1668001;86;21516;-43
2022/08/12 05:48:55;;;;;;;13.62;7.78;;;;;;;22.48;100.00;100655.06;1682982;84;21472;-44
2022/08/12 05:51:23;;;;;;;9.40;7.78;;;;;;;22.65;100.00;100652.62;1675954;85;21442;-43
2022/08/12 05:53:51;;;;;;;14.87;7.70;;;;;;;22.84;100.00;100656.66;1731151;82;21104;-44
2022/08/12 05:56:23;;;;;;;15.68;8.58;;;;;;;23.03;100.00;100648.81;1743805;82;20897;-43
2022/08/12 05:58:51;;;;;;;16.48;8.30;;;;;;;23.21;100.00;100651.52;1744059;82;20936;-44
2022/08/12 06:01:19;;;;;;;13.80;8.28;;;;;;;23.45;100.00;100649.48;1743891;82;20889;-44
2022/08/12 06:03:46;;;;;;;8.60;7.40;;;;;;;23.67;100.00;100639.56;1731379;82;21450;-43
2022/08/12 06:06:16;;;;;;;20.88;7.87;;;;;;;23.89;100.00;100649.09;1715349;82;21092;-43
2022/08/12 06:08:45;;;;;;;15.70;7.80;;;;;;;24.06;100.00;100642.61;1714236;83;20979;-44
2022/08/12 06:11:12;;;;;;;13.03;7.62;;;;;;;24.22;100.00;100646.30;1715100;82;20905;-44
2022/08/12 06:13:40;;;;;;;16.62;8.20;;;;;;;24.32;100.00;100644.66;1723960;82;20909;-43
2022/08/12 06:16:08;;;;;;;16.30;7.92;;;;;;;24.43;100.00;100642.53;1721075;82;20940;-44
2022/08/12 06:18:38;;;;;;;12.85;7.97;;;;;;;24.54;98.92;100645.70;1715097;82;21283;-43
2022/08/12 06:21:07;;;;;;;19.23;8.38;;;;;;;24.57;96.75;100641.50;1742128;82;20981;-43
2022/08/12 06:23:35;;;;;;;14.98;7.60;;;;;;;24.57;96.69;100654.73;1739579;81;20991;-43
2022/08/12 06:26:03;;;;;;;9.98;7.55;;;;;;;24.54;96.59;100649.67;1742265;82;20901;-42
2022/08/12 06:28:30;;;;;;;13.50;8.00;;;;;;;24.57;96.67;100652.09;1742308;82;21467;-42
2022/08/12 06:30:58;;;;;;;12.50;8.18;;;;;;;24.72;97.90;100655.88;1704851;82;21242;-42
2022/08/12 06:33:25;;;;;;;18.80;7.53;;;;;;;24.93;97.72;100660.91;1716198;82;21565;-42
2022/08/12 06:35:52;;;;;;;16.42;7.67;;;;;;;25.15;93.71;100665.88;1719920;83;20991;-42
2022/08/12 06:38:26;;;;;;;17.90;8.20;;;;;;;25.36;93.96;100663.83;1719924;83;20980;-42
2022/08/12 06:43:42;;;;;;;19.10;8.33;;;;;;;25.51;85.88;100670.62;1719696;83;21240;-44
2022/08/12 06:46:10;;;;;;;16.48;8.35;;;;;;;25.31;85.02;100669.97;1719831;83;20928;-43
2022/08/12 06:48:37;;;;;;;14.07;8.33;;;;;;;25.07;85.64;100677.05;1720071;83;20917;-43
2022/08/12 06:51:07;;;;;;;19.70;8.53;;;;;;;24.95;87.02;100673.54;1719731;83;20968;-42
2022/08/12 06:53:34;;;;;;;17.55;8.18;;;;;;;24.91;87.89;100668.12;1719947;83;20987;-43
2022/08/12 06:56:01;;;;;;;19.25;7.70;;;;;;;24.93;88.45;100664.88;1719742;83;21224;-42
2022/08/12 06:58:29;;;;;;;23.38;8.28;;;;;;;25.00;87.43;100669.20;1719917;82;21451;-42
2022/08/12 07:00:57;;;;;;;15.80;7.75;;;;;;;25.10;87.25;100673.31;1719893;83;20880;-42
2022/08/12 07:03:28;;;;;;;14.10;7.60;;;;;;;25.21;87.37;100672.02;1719692;83;21023;-42
2022/08/12 07:05:58;;;;;;;16.73;8.13;;;;;;;25.36;86.96;100683.23;1719972;83;20892;-42
2022/08/12 07:08:28;;;;;;;17.65;8.78;;;;;;;25.50;84.43;100690.59;1719946;83;21863;-42
2022/08/12 07:11:01;;;;;;;25.77;8.30;;;;;;;25.66;82.94;100695.56;1716459;83;21561;-42
2022/08/12 07:13:37;;;;;;;19.32;8.45;;;;;;;25.93;82.97;100716.87;1693412;82;21013;-43
2022/08/12 07:16:02;;;;;;;20.77;8.55;;;;;;;26.11;80.72;100717.20;1719756;82;21030;-42
2022/08/12 07:18:31;;;;;;;14.47;8.75;;;;;;;26.13;79.49;100717.91;1693671;83;21032;-42
2022/08/12 07:21:02;;;;;;;22.95;8.60;;;;;;;26.04;78.50;100719.98;1720071;83;21164;-42
2022/08/12 07:23:33;;;;;;;21.07;9.28;;;;;;;25.89;76.95;100720.70;1719897;83;21581;-42
2022/08/12 07:26:01;;;;;;;20.15;9.05;;;;;;;25.72;78.01;100722.90;1720003;83;20884;-42
2022/08/12 07:28:31;;;;;;;16.67;9.73;;;;;;;25.63;78.61;100727.58;1719866;83;20948;-42
2022/08/12 07:30:58;;;;;;;23.12;9.95;;;;;;;25.61;79.03;100722.41;1720265;83;20975;-43
2022/08/12 07:33:27;;;;;;;17.65;9.00;;;;;;;25.69;78.31;100716.52;1719909;83;21234;-42
2022/08/12 07:35:57;;;;;;;19.35;9.40;;;;;;;25.97;78.35;100722.28;1719643;83;20979;-42
2022/08/12 07:38:38;;;;;;;19.52;9.28;;;;;;;26.52;79.04;100717.48;1719332;83;20944;-43
2022/08/12 07:41:15;;;;;;;22.95;8.85;;;;;;;27.21;79.62;100724.64;1720091;83;20952;-43
2022/08/12 07:43:52;;;;;;;14.45;8.78;;;;;;;27.79;72.17;100720.63;1720115;82;21478;-43
2022/08/12 07:46:22;;;;;;;23.00;8.05;;;;;;;27.97;66.22;100718.16;1720145;82;21218;-42
2022/08/12 07:48:54;;;;;;;20.90;8.15;;;;;;;27.89;66.84;100722.83;1719784;83;20944;-42
2022/08/12 07:51:21;;;;;;;20.55;8.13;;;;;;;27.69;65.66;100721.92;1720062;83;20961;-42
2022/08/12 07:53:48;;;;;;;20.90;8.60;;;;;;;27.48;66.20;100722.77;1719822;83;20904;-42
2022/08/12 07:56:16;;;;;;;15.15;7.55;;;;;;;27.38;67.57;100721.87;1719931;83;20980;-42
2022/08/12 07:58:44;;;;;;;24.05;8.93;;;;;;;27.37;67.43;100718.38;1719766;83;21914;-42
2022/08/12 08:01:14;;;;;;;21.85;8.20;;;;;;;27.45;67.94;100720.39;1719841;83;21003;-42
2022/08/12 08:06:31;;;;;;;19.90;7.62;;;;;;;27.59;66.86;100720.55;1720013;83;21050;-42
2022/08/12 08:09:00;;;;;;;16.15;7.90;;;;;;;27.56;64.16;100722.63;1719989;83;20940;-42
2022/08/12 08:14:13;;;;;;;18.07;7.80;;;;;;;27.39;67.13;100732.84;1719963;82;21560;-43
2022/08/12 08:16:41;;;;;;;22.05;8.50;;;;;;;27.39;67.50;100730.19;1719882;83;21011;-43
2022/08/12 08:19:18;;;;;;;29.10;8.10;;;;;;;27.38;69.10;100725.38;1719861;82;20987;-42
2022/08/12 08:21:37;;;;;;;26.05;7.75;;;;;;;27.41;69.50;100726.95;1718551;83;21401;-43
2022/08/12 08:24:14;;;;;;;11.45;8.00;;;;;;;27.41;70.28;100725.62;1720042;83;21526;-42
2022/08/12 08:26:48;;;;;;;18.50;7.97;;;;;;;27.51;69.93;100730.52;1674095;83;20980;-42
2022/08/12 08:29:16;;;;;;;13.75;8.53;;;;;;;27.57;70.39;100735.80;1719782;83;20939;-42
2022/08/12 08:31:45;;;;;;;14.23;7.20;;;;;;;27.61;68.74;100732.36;1719756;83;20979;-42
2022/08/12 08:34:12;;;;;;;18.32;7.75;;;;;;;27.56;70.31;100741.23;1719910;82;21470;-43
2022/08/12 08:36:39;;;;;;;14.07;8.93;;;;;;;27.50;69.79;100747.41;1719841;82;21159;-42
2022/08/12 08:39:09;;;;;;;14.07;7.62;;;;;;;27.38;69.95;100755.94;1719859;82;20920;-42
2022/08/12 08:44:21;;;;;;;;;;;;;;;27.05;70.33;100767.60;1722322;82;21518;-42
2022/08/12 08:46:48;;;;;;;18.80;8.15;;;;;;;26.84;72.05;100772.36;1720000;83;20081;-42
2022/08/12 08:49:16;;;;;;;22.73;7.65;;;;;;;26.72;72.53;100778.70;1720265;82;21260;-42
2022/08/12 08:51:44;;;;;;;11.08;7.90;;;;;;;26.64;73.60;100793.92;1719830;83;20933;-42
2022/08/12 08:54:11;;;;;;;11.25;8.28;;;;;;;26.53;74.24;100785.50;1719558;82;20995;-42
2022/08/12 08:56:42;;;;;;;15.10;8.40;;;;;;;26.35;72.49;100824.48;1719770;83;20979;-42
2022/08/12 08:59:11;;;;;;;18.15;9.08;;;;;;;26.09;76.18;100820.73;1719838;83;21012;-43
2022/08/12 09:01:39;;;;;;;16.90;8.25;;;;;;;25.62;79.97;100835.87;1719735;82;21613;-43
2022/08/12 09:04:07;;;;;;;12.15;8.60;;;;;;;25.18;82.83;100839.09;1719773;83;20956;-43
2022/08/12 09:06:34;;;;;;;17.98;8.33;;;;;;;24.75;85.62;100843.08;1693373;83;21038;-43
2022/08/12 09:09:04;;;;;;;15.60;8.58;;;;;;;24.38;88.18;100841.27;1720043;82;20976;-43
2022/08/12 09:14:15;;;;;;;20.55;9.43;;;;;;;23.68;91.04;100847.82;1720076;83;21325;-44
2022/08/12 09:16:42;;;;;;;17.92;9.68;;;;;;;23.36;93.65;100856.09;1719851;83;21003;-44
2022/08/12 09:19:12;;;;;;;14.98;9.53;;;;;;;23.10;95.16;100858.62;1720128;82;20987;-44
2022/08/12 09:21:38;;;;;;;13.18;9.48;;;;;;;22.83;96.97;100860.77;1720092;83;21008;-43
2022/08/12 09:24:06;;;;;;;21.23;9.73;;;;;;;22.61;98.10;100870.53;1720246;83;20880;-43
2022/08/12 09:26:34;;;;;;;15.45;10.25;;;;;;;22.42;100.00;100862.90;1720079;82;21216;-43
2022/08/12 09:29:01;;;;;;;16.32;9.83;;;;;;;22.25;100.00;100855.09;1719984;83;20892;-43
2022/08/12 09:31:29;;;;;;;20.62;10.55;;;;;;;22.10;100.00;100845.48;1720176;83;20972;-44
2022/08/12 09:33:56;;;;;;;16.37;10.55;;;;;;;21.92;100.00;100844.81;1720093;83;21004;-44
2022/08/12 09:36:23;;;;;;;21.33;10.48;;;;;;;21.76;100.00;100843.09;1720240;82;20900;-44
2022/08/12 09:38:50;;;;;;;22.73;11.18;;;;;;;21.63;100.00;100843.42;1720178;83;21236;-43
2022/08/12 09:41:17;;;;;;;17.40;11.20;;;;;;;21.51;100.00;100847.63;1719942;83;21411;-43
2022/08/12 09:46:31;;;;;;;23.90;10.70;;;;;;;21.23;100.00;100831.62;1720025;83;20971;-44
2022/08/12 09:48:58;;;;;;;21.62;11.43;;;;;;;21.10;100.00;100822.77;1720193;82;21463;-44
2022/08/12 09:51:26;;;;;;;28.10;11.40;;;;;;;21.01;100.00;100815.38;1720250;83;21366;-43
2022/08/12 09:53:53;;;;;;;24.23;10.68;;;;;;;20.94;100.00;100799.94;1720079;83;20999;-44
2022/08/12 09:56:20;;;;;;;20.75;11.55;;;;;;;20.90;100.00;100795.79;1719945;83;21438;-44
2022/08/12 09:58:49;;;;;;;23.20;10.82;;;;;;;20.92;100.00;100794.38;1719946;82;21019;-44
2022/08/12 10:01:17;;;;;;;21.05;10.95;;;;;;;20.95;100.00;100785.84;1719993;82;21015;-45
2022/08/12 10:03:44;;;;;;;17.65;10.88;;;;;;;20.99;100.00;100778.64;1720227;83;21860;-44
2022/08/12 10:06:11;;;;;;;22.02;10.65;;;;;;;21.02;100.00;100771.88;1719846;83;20932;-44
2022/08/12 10:08:40;;;;;;;14.45;10.88;;;;;;;21.04;100.00;100770.01;1720016;82;20984;-44
2022/08/12 10:13:53;;;;;;;;;;;;;;;21.09;100.00;100753.93;1722563;83;20983;-43
2022/08/12 10:16:27;;;;;;;20.92;9.75;;;;;;;21.13;100.00;100764.69;1720116;83;20792;-44
2022/08/12 10:18:58;;;;;;;17.75;10.53;;;;;;;21.15;100.00;100756.23;1720128;83;20924;-44
2022/08/12 10:21:40;;;;;;;18.32;10.90;;;;;;;21.18;100.00;100742.88;1719981;82;21037;-44
2022/08/12 10:24:00;;;;;;;24.00;10.28;;;;;;;21.26;100.00;100742.44;1715615;83;20897;-44
2022/08/12 10:31:59;;;;;;;16.00;10.15;;;;;;;21.46;100.00;100713.59;1720165;83;21023;-44
2022/08/12 10:34:26;;;;;;;16.45;10.25;;;;;;;21.50;100.00;100715.10;1716917;82;20996;-45
2022/08/12 10:37:00;;;;;;;21.15;10.40;;;;;;;21.58;100.00;100721.68;1706476;83;20985;-45
2022/08/12 10:39:35;;;;;;;20.25;10.85;;;;;;;21.66;100.00;100720.80;1706475;84;20889;-45
2022/08/12 10:45:06;;;;;;;17.30;10.48;;;;;;;21.92;100.00;100719.17;1706464;84;20969;-44
2022/08/12 10:47:34;;;;;;;22.77;11.20;;;;;;;22.11;100.00;100712.75;1706614;83;20933;-45
2022/08/12 10:50:06;;;;;;;18.05;10.18;;;;;;;22.28;100.00;100709.04;1706422;84;21011;-45
2022/08/12 10:52:35;;;;;;;15.68;10.23;;;;;;;22.46;100.00;100711.45;1706425;82;20913;-45
2022/08/12 10:55:01;;;;;;;14.87;9.68;;;;;;;22.61;100.00;100717.09;1706539;83;21278;-45
2022/08/12 10:57:29;;;;;;;18.52;10.20;;;;;;;22.77;100.00;100718.70;1706494;84;20937;-45
2022/08/12 10:59:59;;;;;;;18.40;9.40;;;;;;;22.87;100.00;100711.03;1706570;84;20977;-45
2022/08/12 11:02:27;;;;;;;19.42;9.93;;;;;;;22.96;100.00;100706.44;1706424;83;21455;-44
2022/08/12 11:04:57;;;;;;;22.60;9.60;;;;;;;23.08;100.00;100710.05;1706362;84;20995;-44
2022/08/12 11:07:24;;;;;;;16.17;8.80;;;;;;;23.18;100.00;100709.82;1706548;83;21783;-45
2022/08/12 11:09:52;;;;;;;14.53;8.58;;;;;;;23.29;100.00;100703.84;1706359;84;20945;-45
2022/08/12 11:12:20;;;;;;;15.83;8.75;;;;;;;23.43;100.00;100705.53;1706726;84;21491;-44
2022/08/12 11:14:47;;;;;;;13.45;8.65;;;;;;;23.57;100.00;100702.39;1706474;83;21047;-45
2022/08/12 11:17:13;;;;;;;18.07;8.43;;;;;;;23.67;100.00;100701.64;1706545;84;20929;-45
2022/08/12 11:19:42;;;;;;;14.23;8.78;;;;;;;23.76;100.00;100705.44;1706391;83;21143;-45
2022/08/12 11:22:10;;;;;;;17.57;9.38;;;;;;;23.85;100.00;100706.59;1706489;83;21481;-44
2022/08/12 11:24:38;;;;;;;22.73;9.55;;;;;;;23.94;100.00;100718.32;1706451;83;21004;-45
2022/08/12 11:27:06;;;;;;;19.23;9.80;;;;;;;24.01;100.00;100710.34;1706223;83;20889;-45
2022/08/12 11:29:34;;;;;;;15.53;9.00;;;;;;;24.10;100.00;100711.48;1706272;83;21589;-45
2022/08/12 11:32:01;;;;;;;16.42;8.83;;;;;;;24.19;100.00;100712.63;1706696;83;20947;-44
2022/08/12 11:34:29;;;;;;;14.15;8.48;;;;;;;24.30;100.00;100708.72;1706013;83;21012;-45
2022/08/12 11:37:08;;;;;;;18.70;9.43;;;;;;;24.41;100.00;100710.58;1706406;84;20944;-45
2022/08/12 11:39:34;;;;;;;15.88;8.45;;;;;;;24.57;100.00;100708.14;1706182;83;21402;-44
2022/08/12 11:42:01;;;;;;;19.92;9.05;;;;;;;24.72;100.00;100708.80;1706481;84;20853;-44
2022/08/12 11:44:28;;;;;;;19.30;8.65;;;;;;;24.89;100.00;100707.56;1706088;83;21368;-44
2022/08/12 11:46:56;;;;;;;15.88;8.90;;;;;;;25.09;100.00;100707.38;1706358;84;21027;-44
2022/08/12 11:49:25;;;;;;;9.18;8.03;;;;;;;25.39;99.87;100712.63;1706436;84;20972;-44
2022/08/12 11:51:51;;;;;;;16.73;8.63;;;;;;;25.79;97.21;100709.52;1706208;83;21427;-44
2022/08/12 11:54:18;;;;;;;18.30;8.65;;;;;;;26.35;96.51;100712.23;1712462;82;20965;-44
2022/08/12 11:56:45;;;;;;;12.03;8.55;;;;;;;26.91;91.98;100723.14;1727030;82;21280;-44
2022/08/12 11:59:12;;;;;;;16.60;8.05;;;;;;;27.33;88.95;100713.45;1735361;81;21401;-44
2022/08/12 12:01:40;;;;;;;14.80;7.50;;;;;;;27.73;86.92;100710.04;1726429;82;20957;-44
2022/08/12 12:04:07;;;;;;;20.57;8.03;;;;;;;28.21;82.99;100705.84;1734143;82;20914;-43
2022/08/12 12:06:34;;;;;;;12.18;7.72;;;;;;;28.48;79.87;100696.84;1734278;82;20973;-44
2022/08/12 12:09:02;;;;;;;15.68;8.53;;;;;;;28.48;77.78;100704.32;1670700;85;21614;-93
2022/08/12 12:50:20;;;;;;;15.05;8.33;;;;;;;28.07;75.98;100688.42;1786990;80;22742;-44
2022/08/12 12:52:47;;;;;;;17.73;8.43;;;;;;;28.08;73.94;100683.96;1764147;81;20888;-44
2022/08/12 12:55:15;;;;;;;16.25;9.18;;;;;;;28.17;74.65;100684.99;1758507;81;21145;-44
2022/08/12 12:57:42;;;;;;;16.32;8.98;;;;;;;28.24;73.91;100686.11;1758477;81;20950;-44
2022/08/12 13:00:16;;;;;;;13.40;9.00;;;;;;;28.34;74.13;100684.80;1730841;81;20958;-43
2022/08/12 13:02:54;;;;;;;19.92;8.33;;;;;;;28.39;73.88;100686.03;1706741;82;20924;-43
2022/08/12 13:05:27;;;;;;;17.52;8.85;;;;;;;28.43;73.11;100685.78;1761275;80;21018;-43
2022/08/12 13:07:56;;;;;;;12.20;8.55;;;;;;;28.41;71.04;100688.56;1758602;81;22120;-43
2022/08/12 13:10:25;;;;;;;16.55;8.55;;;;;;;28.35;71.39;100680.64;1758714;81;21854;-45
2022/08/12 13:12:53;;;;;;;14.28;8.40;;;;;;;28.33;72.35;100679.12;1758202;81;20903;-45
2022/08/12 13:15:21;;;;;;;14.87;8.95;;;;;;;28.35;74.02;100677.98;1758359;81;21005;-45
2022/08/12 13:17:55;;;;;;;20.60;8.93;;;;;;;28.51;71.52;100681.41;1756056;81;20923;-45
2022/08/12 13:20:21;;;;;;;20.25;8.80;;;;;;;28.74;70.87;100681.63;1758201;81;21149;-44
2022/08/12 13:22:48;;;;;;;12.53;8.58;;;;;;;28.87;68.77;100682.19;1758135;81;20946;-45
2022/08/12 13:25:16;;;;;;;16.25;8.70;;;;;;;28.85;68.22;100682.82;1758695;81;21527;-44
2022/08/12 13:27:46;;;;;;;15.70;8.38;;;;;;;28.66;68.47;100677.83;1758294;81;21472;-45
2022/08/12 13:30:16;;;;;;;17.52;9.08;;;;;;;28.40;70.48;100678.91;1758506;81;20875;-45
2022/08/12 13:32:49;;;;;;;17.67;9.05;;;;;;;28.21;72.35;100687.72;1758472;81;21209;-45
2022/08/12 13:35:15;;;;;;;14.68;8.95;;;;;;;27.99;72.42;100681.63;1758109;81;21495;-45
2022/08/12 13:37:49;;;;;;;11.85;8.98;;;;;;;27.73;73.63;100688.77;1758653;81;20965;-45
2022/08/12 13:40:18;;;;;;;19.15;9.25;;;;;;;27.47;76.08;100677.25;1760172;81;20980;-44
2022/08/12 13:42:49;;;;;;;18.90;9.33;;;;;;;27.19;78.00;100690.26;1758233;81;20909;-45
2022/08/12 13:45:16;;;;;;;20.82;10.05;;;;;;;26.89;80.41;100686.55;1758666;81;22042;-45
2022/08/12 13:47:57;;;;;;;24.20;8.95;;;;;;;26.65;81.63;100682.80;1730695;81;20929;-45
2022/08/12 13:50:31;;;;;;;22.73;9.15;;;;;;;26.49;83.10;100677.93;1757872;81;21580;-45
2022/08/12 13:53:03;;;;;;;15.23;8.50;;;;;;;26.32;84.68;100672.19;1757327;81;20988;-45
2022/08/12 13:55:30;;;;;;;18.15;10.18;;;;;;;26.20;85.70;100667.41;1753981;81;21012;-45